createdAt,value
2018-11-05T00:00:41.135Z,16.07
2018-11-05T00:03:12.507Z,12.47
2018-11-05T00:05:41.355Z,12.93
2018-11-05T00:08:11.651Z,11.90
2018-11-05T00:10:40.500Z,12.47
2018-11-05T00:13:09.653Z,11.33
2018-11-05T00:15:40.398Z,12.00
2018-11-05T00:18:10.722Z,12.40
2018-11-05T00:20:44.878Z,12.37
2018-11-05T00:23:14.575Z,12.77
2018-11-05T00:25:43.422Z,11.27
2018-11-05T00:28:13.662Z,11.50
2018-11-05T00:30:48.131Z,10.80
2018-11-05T00:33:16.983Z,9.77
2018-11-05T00:35:45.826Z,10.57
2018-11-05T00:38:14.765Z,10.63
2018-11-05T00:40:47.225Z,12.07
2018-11-05T00:43:16.673Z,8.73
2018-11-05T00:45:45.649Z,9.63
2018-11-05T00:48:14.409Z,9.67
2018-11-05T00:50:45.370Z,9.20
2018-11-05T00:53:14.238Z,10.53
2018-11-05T00:55:44.357Z,9.53
2018-11-05T00:58:16.946Z,10.83
2018-11-05T01:00:45.845Z,9.93
2018-11-05T01:03:14.655Z,10.60
2018-11-05T01:05:43.770Z,8.83
2018-11-05T01:08:12.615Z,10.03
2018-11-05T01:10:41.445Z,8.97
2018-11-05T01:13:10.274Z,10.90
2018-11-05T01:15:39.518Z,10.90
2018-11-05T01:18:08.347Z,11.17
2018-11-05T01:20:39.522Z,10.90
2018-11-05T01:23:11.129Z,10.67
2018-11-05T01:25:39.968Z,11.47
2018-11-05T01:28:10.473Z,10.53
2018-11-05T01:30:39.821Z,10.60
2018-11-05T01:33:10.393Z,11.63
2018-11-05T01:35:40.372Z,11.40
2018-11-05T01:38:09.202Z,11.13
2018-11-05T01:40:38.018Z,11.83
2018-11-05T01:43:07.799Z,12.20
2018-11-05T01:45:37.818Z,15.23
2018-11-05T01:48:06.803Z,12.97
2018-11-05T01:50:35.689Z,11.57
2018-11-05T01:53:04.545Z,13.10
2018-11-05T01:55:33.735Z,12.20
2018-11-05T01:58:02.579Z,12.67
2018-11-05T02:00:31.418Z,13.33
2018-11-05T02:03:00.230Z,14.70
2018-11-05T02:05:29.346Z,12.07
2018-11-05T02:07:58.155Z,14.43
2018-11-05T02:10:27.174Z,13.37
2018-11-05T02:12:55.898Z,14.83
2018-11-05T02:15:24.729Z,14.87
2018-11-05T02:17:54.890Z,15.53
2018-11-05T02:20:24.069Z,19.00
2018-11-05T02:22:53.814Z,15.10
2018-11-05T02:25:22.687Z,18.00
2018-11-05T02:28:01.338Z,13.90
2018-11-05T02:30:30.162Z,14.67
2018-11-05T02:32:58.974Z,14.70
2018-11-05T02:35:27.820Z,23.13
2018-11-05T02:37:57.509Z,18.07
2018-11-05T02:40:27.785Z,19.67
2018-11-05T02:42:59.456Z,19.53
2018-11-05T02:45:28.269Z,35.70
2018-11-05T02:47:57.870Z,41.07
2018-11-05T02:50:26.760Z,31.17
2018-11-05T02:52:55.565Z,25.20
2018-11-05T02:55:26.427Z,21.97
2018-11-05T02:57:55.293Z,22.17
2018-11-05T03:00:24.480Z,15.60
2018-11-05T03:02:54.769Z,19.60
2018-11-05T03:05:23.590Z,21.30
2018-11-05T03:07:52.854Z,19.93
2018-11-05T03:10:21.750Z,16.63
2018-11-05T03:12:50.607Z,19.03
2018-11-05T03:15:19.949Z,21.97
2018-11-05T03:17:49.239Z,22.63
2018-11-05T03:20:18.101Z,19.57
2018-11-05T03:22:46.962Z,17.50
2018-11-05T03:25:15.831Z,18.40
2018-11-05T03:27:45.008Z,21.30
2018-11-05T03:30:16.101Z,22.57
2018-11-05T03:32:45.839Z,21.30
2018-11-05T03:35:15.133Z,20.50
2018-11-05T03:37:45.335Z,22.13
2018-11-05T03:40:14.502Z,17.57
2018-11-05T03:42:44.317Z,19.33
2018-11-05T03:45:14.372Z,23.23
2018-11-05T03:47:43.478Z,25.17
2018-11-05T03:50:14.616Z,25.63
2018-11-05T03:52:44.135Z,22.70
2018-11-05T03:55:13.360Z,20.63
2018-11-05T03:57:42.234Z,22.83
2018-11-05T04:00:13.245Z,20.90
2018-11-05T04:02:42.482Z,23.43
2018-11-05T04:05:11.318Z,18.23
2018-11-05T04:07:40.344Z,17.90
2018-11-05T04:10:16.643Z,20.03
2018-11-05T04:13:49.267Z,45.03
2018-11-05T04:16:18.190Z,28.97
2018-11-05T04:18:47.003Z,26.57
2018-11-05T04:21:16.288Z,26.50
2018-11-05T04:23:45.150Z,23.10
2018-11-05T04:26:14.068Z,23.93
2018-11-05T04:28:42.927Z,36.77
2018-11-05T04:31:13.555Z,30.00
2018-11-05T04:33:42.434Z,28.40
2018-11-05T04:36:11.285Z,30.87
2018-11-05T04:38:41.590Z,27.03
2018-11-05T04:41:10.434Z,23.53
2018-11-05T04:43:39.250Z,23.67
2018-11-05T04:46:08.094Z,26.03
2018-11-05T04:48:38.290Z,23.03
2018-11-05T04:51:07.176Z,29.53
2018-11-05T04:53:36.087Z,23.57
2018-11-05T04:56:04.947Z,23.17
2018-11-05T04:58:34.187Z,30.63
2018-11-05T05:01:06.131Z,24.23
2018-11-05T05:03:35.080Z,22.07
2018-11-05T05:06:04.002Z,21.03
2018-11-05T05:08:32.941Z,19.63
2018-11-05T05:11:01.859Z,18.13
2018-11-05T05:13:31.220Z,35.60
2018-11-05T05:16:00.086Z,19.40
2018-11-05T05:18:28.997Z,16.63
2018-11-05T05:20:58.719Z,19.43
2018-11-05T05:23:27.587Z,21.40
2018-11-05T05:25:57.342Z,24.47
2018-11-05T05:28:27.387Z,21.53
2018-11-05T05:30:58.243Z,18.37
2018-11-05T05:33:28.221Z,18.90
2018-11-05T05:35:57.134Z,13.07
2018-11-05T05:38:25.983Z,16.77
2018-11-05T05:40:54.929Z,15.23
2018-11-05T05:43:23.752Z,20.27
2018-11-05T05:45:53.076Z,29.57
2018-11-05T05:48:22.645Z,64.53
2018-11-05T05:50:51.487Z,39.57
2018-11-05T05:53:21.213Z,46.30
2018-11-05T05:55:50.228Z,47.73
2018-11-05T05:58:19.044Z,39.27
2018-11-05T06:00:47.881Z,34.77
2018-11-05T06:03:16.702Z,25.90
2018-11-05T06:05:45.543Z,25.77
2018-11-05T06:08:14.375Z,22.47
2018-11-05T06:10:43.209Z,30.03
2018-11-05T06:13:12.054Z,40.17
2018-11-05T06:15:41.339Z,37.77
2018-11-05T06:18:10.158Z,35.77
2018-11-05T06:20:39.205Z,29.00
2018-11-05T06:23:08.082Z,26.90
2018-11-05T06:25:37.769Z,25.47
2018-11-05T06:28:07.311Z,25.40
2018-11-05T06:30:37.460Z,38.90
2018-11-05T06:33:06.432Z,34.30
2018-11-05T06:35:35.925Z,46.00
2018-11-05T06:38:07.933Z,38.20
2018-11-05T06:40:38.717Z,37.33
2018-11-05T06:43:07.595Z,35.17
2018-11-05T06:45:37.147Z,43.10
2018-11-05T06:48:07.702Z,59.20
2018-11-05T06:50:39.433Z,45.93
2018-11-05T06:53:08.304Z,47.37
2018-11-05T06:55:37.502Z,49.27
2018-11-05T06:58:06.369Z,45.77
2018-11-05T07:00:35.180Z,55.70
2018-11-05T07:03:05.275Z,46.43
2018-11-05T07:05:34.229Z,53.03
2018-11-05T07:08:03.123Z,43.70
2018-11-05T07:10:32.316Z,38.97
2018-11-05T07:13:01.528Z,43.20
2018-11-05T07:15:30.409Z,41.13
2018-11-05T07:17:59.331Z,56.33
2018-11-05T07:20:29.825Z,44.60
2018-11-05T07:23:01.380Z,74.37
2018-11-05T07:25:30.364Z,96.63
2018-11-05T07:27:59.566Z,116.87
2018-11-05T07:30:29.310Z,102.20
2018-11-05T07:32:58.179Z,114.37
2018-11-05T07:35:27.218Z,106.77
2018-11-05T07:37:59.281Z,119.83
2018-11-05T07:40:28.188Z,132.43
2018-11-05T07:42:57.079Z,131.80
2018-11-05T07:45:26.342Z,140.67
2018-11-05T07:47:55.231Z,92.60
2018-11-05T07:50:27.063Z,53.20
2018-11-05T07:52:56.268Z,52.87
2018-11-05T07:55:25.387Z,62.03
2018-11-05T07:57:55.166Z,48.17
2018-11-05T08:00:30.274Z,57.57
2018-11-05T08:02:59.378Z,61.03
2018-11-05T08:05:28.109Z,40.60
2018-11-05T08:07:59.124Z,50.40
2018-11-05T08:10:28.069Z,55.27
2018-11-05T08:13:08.161Z,51.67
2018-11-05T08:15:37.114Z,49.90
2018-11-05T08:18:06.151Z,46.67
2018-11-05T08:20:37.403Z,47.60
2018-11-05T08:23:07.822Z,54.97
2018-11-05T08:25:37.702Z,53.90
2018-11-05T08:28:08.482Z,57.67
2018-11-05T08:30:40.544Z,57.60
2018-11-05T08:33:11.602Z,65.03
2018-11-05T08:35:45.399Z,70.63
2018-11-05T08:38:15.703Z,52.83
2018-11-05T08:40:45.447Z,38.60
2018-11-05T08:43:14.379Z,41.07
2018-11-05T08:45:47.419Z,42.57
2018-11-05T08:48:16.587Z,41.50
2018-11-05T08:50:45.837Z,47.13
2018-11-05T08:53:15.998Z,43.70
2018-11-05T08:55:44.822Z,45.30
2018-11-05T08:58:14.443Z,43.63
2018-11-05T09:00:48.881Z,42.10
2018-11-05T09:03:19.643Z,41.03
2018-11-05T09:05:48.489Z,37.23
2018-11-05T09:08:26.088Z,39.07
2018-11-05T09:10:55.444Z,176.93
2018-11-05T09:13:24.682Z,118.87
2018-11-05T09:15:56.770Z,114.53
2018-11-05T09:18:25.730Z,131.93
2018-11-05T09:20:57.625Z,139.83
2018-11-05T09:23:33.089Z,175.07
2018-11-05T09:26:03.566Z,116.60
2018-11-05T09:28:32.895Z,69.53
2018-11-05T09:31:01.781Z,68.13
2018-11-05T09:33:34.931Z,47.53
2018-11-05T09:36:03.806Z,38.03
2018-11-05T09:38:42.221Z,45.23
2018-11-05T09:41:11.475Z,38.00
2018-11-05T09:43:41.190Z,83.03
2018-11-05T09:46:13.452Z,62.60
2018-11-05T09:48:42.304Z,42.93
2018-11-05T09:51:11.176Z,32.93
2018-11-05T09:53:40.342Z,30.37
2018-11-05T09:56:09.904Z,35.37
2018-11-05T09:58:45.206Z,28.97
2018-11-05T10:01:17.942Z,31.47
2018-11-05T10:03:53.369Z,37.07
2018-11-05T10:06:25.201Z,36.57
2018-11-05T10:08:54.714Z,28.97
2018-11-05T10:11:26.311Z,28.47
2018-11-05T10:13:56.931Z,24.10
2018-11-05T10:16:27.847Z,24.80
2018-11-05T10:18:57.491Z,21.43
2018-11-05T10:21:28.329Z,21.27
2018-11-05T10:24:06.006Z,26.43
2018-11-05T10:26:36.782Z,25.27
2018-11-05T10:29:08.723Z,21.27
2018-11-05T10:31:38.195Z,21.00
2018-11-05T10:34:07.328Z,21.40
2018-11-05T10:36:37.269Z,22.00
2018-11-05T10:39:08.351Z,22.87
2018-11-05T10:41:37.227Z,22.40
2018-11-05T10:44:06.324Z,24.23
2018-11-05T10:46:58.838Z,30.47
2018-11-05T10:49:30.698Z,23.43
2018-11-05T10:52:00.118Z,26.00
2018-11-05T10:54:29.855Z,27.97
2018-11-05T10:56:58.741Z,24.10
2018-11-05T10:59:30.775Z,27.10
2018-11-05T11:02:04.602Z,27.40
2018-11-05T11:04:34.840Z,24.07
2018-11-05T11:07:05.871Z,22.07
2018-11-05T11:09:37.005Z,21.43
2018-11-05T11:12:06.275Z,22.93
2018-11-05T11:14:35.211Z,20.77
2018-11-05T11:17:04.422Z,24.73
2018-11-05T11:19:33.242Z,22.90
2018-11-05T11:22:02.410Z,22.63
2018-11-05T11:24:32.558Z,20.67
2018-11-05T11:27:03.170Z,15.67
2018-11-05T11:29:32.707Z,14.23
2018-11-05T11:32:01.727Z,13.77
2018-11-05T11:34:31.006Z,13.07
2018-11-05T11:36:59.897Z,13.17
2018-11-05T11:39:28.731Z,15.00
2018-11-05T11:41:59.303Z,13.53
2018-11-05T11:44:28.367Z,12.37
2018-11-05T11:47:08.712Z,13.93
2018-11-05T11:49:42.378Z,17.53
2018-11-05T11:52:11.770Z,13.67
2018-11-05T11:54:42.526Z,18.37
2018-11-05T11:57:13.484Z,14.33
2018-11-05T11:59:43.381Z,13.27
2018-11-05T12:02:14.580Z,15.67
2018-11-05T12:04:45.211Z,16.57
2018-11-05T12:07:17.824Z,13.13
2018-11-05T12:09:47.380Z,14.97
2018-11-05T12:12:18.145Z,17.27
2018-11-05T12:14:48.341Z,14.43
2018-11-05T12:17:17.111Z,15.03
2018-11-05T12:19:47.256Z,15.47
2018-11-05T12:22:16.112Z,15.40
2018-11-05T12:24:44.976Z,15.13
2018-11-05T12:27:13.816Z,16.67
2018-11-05T12:29:45.688Z,15.03
2018-11-05T12:32:15.026Z,17.03
2018-11-05T12:34:43.798Z,14.33
2018-11-05T12:37:16.512Z,14.30
2018-11-05T12:39:47.558Z,13.73
2018-11-05T12:42:19.086Z,13.23
2018-11-05T12:44:49.107Z,11.80
2018-11-05T12:47:17.961Z,16.00
2018-11-05T12:49:47.223Z,16.97
2018-11-05T12:52:16.099Z,16.20
2018-11-05T12:54:45.056Z,12.37
2018-11-05T12:57:13.911Z,11.53
2018-11-05T12:59:45.403Z,14.20
2018-11-05T13:02:14.298Z,13.43
2018-11-05T13:04:43.158Z,13.53
2018-11-05T13:07:12.122Z,13.37
2018-11-05T13:09:40.920Z,15.67
2018-11-05T13:12:12.759Z,13.67
2018-11-05T13:14:41.625Z,13.40
2018-11-05T13:17:10.915Z,14.07
2018-11-05T13:19:39.728Z,14.17
2018-11-05T13:22:09.705Z,13.60
2018-11-05T13:24:38.788Z,15.33
2018-11-05T13:27:08.562Z,14.60
2018-11-05T13:29:38.043Z,14.20
2018-11-05T13:32:10.851Z,15.13
2018-11-05T13:34:42.986Z,16.30
2018-11-05T13:37:12.843Z,16.67
2018-11-05T13:39:41.579Z,12.93
2018-11-05T13:42:13.256Z,15.13
2018-11-05T13:44:42.499Z,16.50
2018-11-05T13:47:13.469Z,15.73
2018-11-05T13:49:43.453Z,18.50
2018-11-05T13:52:13.040Z,16.63
2018-11-05T13:54:42.464Z,19.70
2018-11-05T13:57:13.854Z,16.83
2018-11-05T13:59:42.723Z,16.40
2018-11-05T14:02:11.591Z,18.50
2018-11-05T14:04:43.625Z,19.50
2018-11-05T14:07:28.631Z,15.77
2018-11-05T14:10:12.162Z,17.13
2018-11-05T14:12:41.503Z,19.63
2018-11-05T14:15:11.723Z,17.97
2018-11-05T14:17:44.350Z,18.57
2018-11-05T14:20:14.804Z,18.27
2018-11-05T14:22:44.688Z,14.97
2018-11-05T14:25:16.255Z,16.10
2018-11-05T14:27:46.492Z,22.53
2018-11-05T14:30:16.796Z,19.07
2018-11-05T14:32:48.664Z,19.77
2018-11-05T14:35:18.546Z,18.13
2018-11-05T14:37:49.570Z,22.50
2018-11-05T14:40:19.182Z,23.40
2018-11-05T14:42:49.479Z,19.17
2018-11-05T14:45:21.644Z,21.27
2018-11-05T14:47:53.768Z,19.70
2018-11-05T14:50:24.343Z,20.80
2018-11-05T14:52:54.867Z,19.57
2018-11-05T14:55:23.786Z,18.33
2018-11-05T14:57:55.438Z,18.23
2018-11-05T15:00:28.178Z,20.60
2018-11-05T15:02:59.396Z,21.67
2018-11-05T15:05:28.404Z,17.80
2018-11-05T15:07:59.272Z,21.30
2018-11-05T15:10:34.694Z,20.07
2018-11-05T15:13:03.620Z,19.80
2018-11-05T15:15:39.997Z,19.93
2018-11-05T15:18:10.615Z,19.13
2018-11-05T15:20:40.123Z,22.40
2018-11-05T15:23:09.007Z,22.07
2018-11-05T15:25:40.545Z,20.17
2018-11-05T15:28:11.091Z,21.30
2018-11-05T15:30:41.369Z,22.50
2018-11-05T15:33:11.350Z,21.60
2018-11-05T15:35:41.127Z,23.03
2018-11-05T15:38:10.343Z,25.23
2018-11-05T15:40:41.576Z,22.47
2018-11-05T15:43:12.559Z,23.50
2018-11-05T15:45:41.491Z,23.07
2018-11-05T15:48:11.155Z,24.13
2018-11-05T15:50:44.440Z,24.00
2018-11-05T15:53:15.183Z,25.77
2018-11-05T15:55:44.415Z,23.47
2018-11-05T15:58:14.327Z,24.40
2018-11-05T16:00:43.323Z,24.87
2018-11-05T16:03:12.304Z,32.03
2018-11-05T16:05:42.189Z,22.73
2018-11-05T16:08:19.760Z,26.67
2018-11-05T16:10:48.624Z,26.87
2018-11-05T16:13:19.282Z,30.73
2018-11-05T16:15:49.483Z,25.93
2018-11-05T16:18:18.357Z,25.30
2018-11-05T16:20:47.255Z,24.70
2018-11-05T16:23:17.181Z,25.90
2018-11-05T16:25:49.264Z,23.93
2018-11-05T16:28:18.237Z,23.30
2018-11-05T16:30:47.390Z,27.57
2018-11-05T16:33:17.348Z,26.90
2018-11-05T16:35:47.112Z,23.63
2018-11-05T16:38:17.480Z,25.70
2018-11-05T16:40:48.047Z,25.63
2018-11-05T16:43:16.964Z,23.20
2018-11-05T16:45:49.415Z,25.10
2018-11-05T16:48:20.522Z,25.90
2018-11-05T16:50:51.681Z,31.23
2018-11-05T16:53:24.066Z,29.40
2018-11-05T16:55:54.653Z,32.03
2018-11-05T16:58:25.266Z,28.60
2018-11-05T17:00:54.561Z,29.50
2018-11-05T17:03:24.519Z,28.23
2018-11-05T17:05:57.177Z,27.23
2018-11-05T17:08:29.204Z,26.73
2018-11-05T17:10:58.626Z,27.63
2018-11-05T17:13:28.337Z,29.37
2018-11-05T17:16:12.319Z,29.83
2018-11-05T17:18:41.451Z,26.80
2018-11-05T17:21:12.087Z,31.93
2018-11-05T17:23:41.920Z,30.10
2018-11-05T17:26:13.713Z,29.90
2018-11-05T17:28:44.370Z,29.43
2018-11-05T17:31:15.134Z,30.97
2018-11-05T17:33:47.043Z,28.33
2018-11-05T17:36:55.815Z,29.83
2018-11-05T17:39:26.675Z,27.97
2018-11-05T17:42:01.642Z,33.97
2018-11-05T17:50:05.555Z,29.83
2018-11-05T17:52:34.856Z,35.17
2018-11-05T17:55:07.441Z,29.13
2018-11-05T17:57:36.434Z,25.13
2018-11-05T18:00:08.411Z,28.67
2018-11-05T18:02:41.731Z,29.00
2018-11-05T18:05:32.315Z,32.13
2018-11-05T18:08:48.496Z,28.03
2018-11-05T18:11:18.639Z,29.77
2018-11-05T18:13:49.286Z,28.93
2018-11-05T18:16:18.986Z,28.43
2018-11-05T18:18:48.752Z,25.33
2018-11-05T18:21:24.176Z,28.67
2018-11-05T18:23:57.443Z,32.77
2018-11-05T18:26:26.287Z,29.60
2018-11-05T18:28:55.415Z,31.57
2018-11-05T18:31:24.257Z,29.50
2018-11-05T18:33:54.429Z,25.73
2018-11-05T18:36:23.810Z,28.07
2018-11-05T18:38:55.364Z,28.50
2018-11-05T18:41:25.318Z,28.87
2018-11-05T18:43:55.826Z,30.00
2018-11-05T18:46:24.682Z,28.63
2018-11-05T18:48:56.629Z,27.63
2018-11-05T18:51:30.349Z,28.00
2018-11-05T18:54:00.754Z,27.40
2018-11-05T18:56:31.787Z,26.80
2018-11-05T18:59:05.504Z,30.73
2018-11-05T19:01:37.374Z,33.23
2018-11-05T19:04:07.056Z,27.50
2018-11-05T19:06:36.899Z,26.73
2018-11-05T19:09:08.316Z,23.83
2018-11-05T19:11:37.147Z,26.90
2018-11-05T19:14:09.143Z,25.30
2018-11-05T19:16:42.361Z,25.90
2018-11-05T19:19:14.082Z,28.43
2018-11-05T19:21:45.232Z,29.27
2018-11-05T19:24:14.903Z,28.90
2018-11-05T19:26:45.403Z,26.77
2018-11-05T19:29:14.815Z,26.07
2018-11-05T19:31:44.370Z,24.57
2018-11-05T19:34:15.272Z,23.60
2018-11-05T19:36:48.050Z,25.67
2018-11-05T19:39:23.788Z,23.80
2018-11-05T19:41:53.957Z,27.90
2018-11-05T19:44:24.427Z,26.13
2018-11-05T19:46:55.433Z,27.07
2018-11-05T19:49:28.114Z,25.10
2018-11-05T19:51:57.179Z,26.53
2018-11-05T19:54:27.830Z,22.13
2018-11-05T19:56:57.920Z,24.77
2018-11-05T19:59:26.754Z,23.37
2018-11-05T20:01:58.437Z,25.80
2018-11-05T20:04:31.815Z,23.97
2018-11-05T20:07:04.264Z,24.37
2018-11-05T20:09:35.233Z,24.63
2018-11-05T20:12:04.349Z,26.23
2018-11-05T20:14:37.427Z,28.40
2018-11-05T20:17:08.544Z,22.67
2018-11-05T20:20:40.470Z,24.57
2018-11-05T20:23:12.219Z,26.43
2018-11-05T20:25:41.795Z,24.33
2018-11-05T20:28:12.426Z,24.00
2018-11-05T20:30:41.756Z,23.60
2018-11-05T20:33:15.372Z,27.10
2018-11-05T20:35:52.505Z,27.10
2018-11-05T20:38:25.322Z,24.73
2018-11-05T20:40:55.546Z,25.53
2018-11-05T20:43:25.105Z,24.67
2018-11-05T20:45:54.625Z,23.83
2018-11-05T20:48:25.855Z,25.97
2018-11-05T20:50:56.522Z,26.03
2018-11-05T20:53:29.017Z,27.33
2018-11-05T20:55:59.278Z,28.13
2018-11-05T20:58:29.206Z,25.07
2018-11-05T21:00:58.561Z,24.03
2018-11-05T21:03:27.420Z,26.43
2018-11-05T21:05:56.781Z,31.87
2018-11-05T21:08:41.223Z,25.17
2018-11-05T21:13:51.525Z,22.40
2018-11-05T21:16:25.854Z,24.13
2018-11-05T21:18:56.362Z,24.03
2018-11-05T21:21:28.606Z,29.00
2018-11-05T21:23:57.392Z,27.83
2018-11-05T21:26:27.374Z,25.00
2018-11-05T21:28:57.016Z,24.63
2018-11-05T21:31:26.444Z,26.13
2018-11-05T21:36:35.159Z,27.03
2018-11-05T21:39:05.083Z,26.50
2018-11-05T21:41:38.040Z,27.83
2018-11-05T21:44:10.523Z,28.07
2018-11-05T21:46:40.355Z,26.73
2018-11-05T21:49:17.228Z,27.73
2018-11-05T21:51:47.189Z,29.33
2018-11-05T21:54:21.674Z,31.47
2018-11-05T21:56:51.258Z,29.07
2018-11-05T21:59:21.334Z,26.20
2018-11-05T22:01:53.418Z,26.93
2018-11-05T22:04:23.352Z,27.67
2018-11-05T22:06:54.693Z,34.07
2018-11-05T22:09:26.270Z,24.80
2018-11-05T22:11:57.862Z,27.97
2018-11-05T22:14:27.267Z,27.23
2018-11-05T22:17:04.060Z,26.47
2018-11-05T22:19:34.213Z,25.97
2018-11-05T22:22:07.003Z,30.23
2018-11-05T22:24:47.494Z,26.93
2018-11-05T22:27:20.644Z,28.23
2018-11-05T22:29:50.422Z,27.33
2018-11-05T22:32:22.249Z,28.47
2018-11-05T22:34:51.171Z,28.77
2018-11-05T22:37:20.756Z,29.30
2018-11-05T22:39:49.519Z,33.70
2018-11-05T22:42:19.207Z,29.83
2018-11-05T22:44:48.371Z,27.30
2018-11-05T22:47:18.251Z,27.50
2018-11-05T22:49:48.627Z,25.47
2018-11-05T22:52:17.771Z,30.10
2018-11-05T22:54:51.388Z,30.83
2018-11-05T22:57:20.731Z,28.93
2018-11-05T22:59:50.561Z,27.40
2018-11-05T23:02:37.267Z,26.43
2018-11-05T23:05:07.142Z,26.57
2018-11-05T23:07:37.121Z,25.47
2018-11-05T23:10:06.047Z,29.13
2018-11-05T23:12:35.009Z,27.27
2018-11-05T23:15:04.366Z,27.83
2018-11-05T23:17:34.113Z,27.17
2018-11-05T23:20:02.934Z,29.90
2018-11-05T23:22:31.774Z,28.67
2018-11-05T23:25:01.533Z,25.53
2018-11-05T23:27:30.461Z,28.03
2018-11-05T23:29:59.428Z,28.37
2018-11-05T23:32:28.363Z,29.30
2018-11-05T23:34:58.349Z,29.43
2018-11-05T23:37:27.582Z,26.77
2018-11-05T23:39:57.746Z,29.00
2018-11-05T23:42:28.727Z,27.27
2018-11-05T23:44:57.535Z,25.80
2018-11-05T23:47:28.419Z,26.70
2018-11-05T23:49:57.987Z,30.43
2018-11-05T23:52:27.261Z,26.87
2018-11-05T23:54:56.111Z,24.50
2018-11-05T23:57:25.582Z,30.40
2018-11-05T23:59:54.442Z,26.00
